Time;durP1;ratioP1;P1;durP2;ratioP2;P2;SDS_P1;SDS_P2;PMS_P1;PMS_P2;Temp;Humidity;BMP_temperature;BMP_pressure;BME280_temperature;BME280_humidity;BME280_pressure;Samples;Min_cycle;Max_cycle;Signal;HPM_P1;HPM_P2
2023/05/22 00:02:01;;;;;;;18.67;8.85;;;;;;;-144.73;100.00;54321.50;5046111;28;20158;-70
2023/05/22 00:04:28;;;;;;;11.18;8.10;;;;;;;-144.73;100.00;54354.34;5048296;28;20032;-70
2023/05/22 00:06:54;;;;;;;13.35;8.80;;;;;;;-144.73;100.00;54337.91;5049126;28;20031;-70
2023/05/22 00:09:20;;;;;;;11.68;8.15;;;;;;;-144.73;99.96;54350.22;5049736;28;20021;-70
2023/05/22 00:11:45;;;;;;;12.98;8.07;;;;;;;-144.73;100.00;54333.81;5041679;28;20052;-70
2023/05/22 00:14:12;;;;;;;12.98;8.20;;;;;;;-144.73;99.17;54370.75;5048200;28;20095;-70
2023/05/22 00:16:38;;;;;;;18.50;8.70;;;;;;;-144.73;99.86;54317.38;5048503;28;20033;-71
2023/05/22 00:19:03;;;;;;;19.05;8.25;;;;;;;-144.73;98.99;54346.13;5048909;28;20021;-71
2023/05/22 00:21:33;;;;;;;15.60;8.45;;;;;;;-144.73;99.00;54366.66;5047420;28;20029;-71
2023/05/22 00:24:00;;;;;;;18.70;9.23;;;;;;;-144.73;100.00;54329.72;5049402;28;20029;-71
2023/05/22 00:26:25;;;;;;;15.48;7.95;;;;;;;-144.73;100.00;54368.69;5048726;28;20035;-71
2023/05/22 00:28:51;;;;;;;18.85;8.25;;;;;;;-144.73;99.13;54321.50;5047087;28;20021;-71
2023/05/22 00:31:16;;;;;;;16.45;8.27;;;;;;;-144.73;99.67;54329.72;5047847;28;20033;-71
2023/05/22 00:33:42;;;;;;;16.08;8.32;;;;;;;-144.73;99.50;54321.50;5049048;28;20025;-71
2023/05/22 00:36:07;;;;;;;16.40;7.72;;;;;;;-144.73;99.48;54344.06;5049049;28;20037;-71
2023/05/22 00:38:36;;;;;;;17.40;8.60;;;;;;;-144.73;99.04;54329.72;5048337;28;20021;-71
2023/05/22 00:41:04;;;;;;;14.68;8.65;;;;;;;-144.73;100.00;54360.50;5048998;28;20037;-71
2023/05/22 00:43:30;;;;;;;11.93;7.88;;;;;;;-144.73;99.75;54321.50;5048012;28;20024;-71
2023/05/22 00:45:56;;;;;;;18.38;7.75;;;;;;;-144.73;99.33;54321.50;5048916;28;20044;-71
2023/05/22 00:48:21;;;;;;;16.98;7.85;;;;;;;-144.73;99.13;54395.38;5048265;28;20051;-71
2023/05/22 00:50:48;;;;;;;12.60;7.82;;;;;;;-144.73;99.68;54354.34;5047883;28;20104;-71
2023/05/22 00:53:14;;;;;;;17.10;8.00;;;;;;;-144.73;99.60;54391.28;5048639;28;20033;-71
2023/05/22 00:55:41;;;;;;;14.38;8.35;;;;;;;-144.73;99.63;54342.03;5047762;28;20083;-72
2023/05/22 00:58:09;;;;;;;18.60;8.20;;;;;;;-144.73;100.00;54321.50;5044162;28;20514;-71
2023/05/22 01:00:36;;;;;;;11.50;8.40;;;;;;;-144.73;99.51;54313.28;5046805;28;20034;-71
2023/05/22 01:03:04;;;;;;;12.43;8.10;;;;;;;-144.73;99.17;54374.84;5049559;28;20503;-71
2023/05/22 01:05:30;;;;;;;14.77;7.90;;;;;;;-144.73;99.89;54346.13;5048125;28;20035;-73
2023/05/22 01:07:56;;;;;;;15.02;8.32;;;;;;;-144.73;99.21;54356.38;5048310;28;20039;-71
2023/05/22 01:10:22;;;;;;;14.88;7.75;;;;;;;-144.73;100.00;54333.81;5047336;28;20049;-71
2023/05/22 01:12:59;;;;;;;14.00;8.32;;;;;;;-144.73;99.54;54362.53;5048238;28;20051;-71
2023/05/22 01:15:40;;;;;;;17.25;8.32;;;;;;;-144.73;100.00;54358.44;5047277;28;20037;-71
2023/05/22 01:18:36;;;;;;;11.50;8.40;;;;;;;-144.73;100.00;54350.22;5050584;28;20029;-71
2023/05/22 01:21:12;;;;;;;17.50;7.28;;;;;;;-144.73;98.92;54317.38;5049928;28;20033;-71
2023/05/22 01:24:19;;;;;;;15.70;8.02;;;;;;;-144.73;99.88;54358.44;5049748;28;20040;-71
2023/05/22 01:27:13;;;;;;;19.50;8.45;;;;;;;-144.73;99.71;54337.91;5037265;28;20415;-71
2023/05/22 01:30:07;;;;;;;9.60;7.72;;;;;;;-144.73;100.00;54366.66;5049848;28;20021;-71
2023/05/22 01:32:33;;;;;;;14.88;8.13;;;;;;;-144.73;100.00;54358.44;5048056;28;20020;-71
2023/05/22 01:35:02;;;;;;;20.40;7.50;;;;;;;-144.73;100.00;54358.44;5050325;28;20041;-71
2023/05/22 01:37:28;;;;;;;18.90;8.35;;;;;;;-144.73;100.00;54342.03;5052779;28;20281;-71
2023/05/22 01:39:55;;;;;;;15.40;8.68;;;;;;;-144.73;100.00;54362.53;5051959;28;20079;-71
2023/05/22 01:42:20;;;;;;;9.98;7.68;;;;;;;-144.73;100.00;54313.28;5052045;28;20284;-72
2023/05/22 01:44:49;;;;;;;11.93;7.88;;;;;;;-144.73;100.00;54337.91;5050796;28;20503;-71
2023/05/22 01:47:14;;;;;;;10.38;8.05;;;;;;;-144.73;100.00;54346.13;5052286;28;20102;-71
2023/05/22 01:49:40;;;;;;;12.15;8.65;;;;;;;-144.73;100.00;54348.19;5052478;28;20111;-71
2023/05/22 01:52:33;;;;;;;13.18;7.88;;;;;;;-144.73;100.00;54346.13;5051188;28;20462;-71
2023/05/22 01:55:12;;;;;;;15.30;7.88;;;;;;;-144.73;100.00;54370.75;5051806;28;20041;-70
2023/05/22 01:57:58;;;;;;;15.25;8.18;;;;;;;-144.73;100.00;54321.50;5050596;28;20056;-70
2023/05/22 02:00:26;;;;;;;21.67;8.52;;;;;;;-144.73;100.00;54387.19;5049737;28;20551;-69
2023/05/22 02:03:06;;;;;;;17.88;8.57;;;;;;;-144.73;100.00;54346.13;5052786;28;20391;-69
2023/05/22 02:05:34;;;;;;;15.35;7.93;;;;;;;-144.73;100.00;54350.22;5050423;28;20036;-70
2023/05/22 02:08:01;;;;;;;12.75;7.35;;;;;;;-144.73;100.00;54358.44;5052382;28;20032;-70
2023/05/22 02:10:29;;;;;;;10.75;8.15;;;;;;;-144.73;100.00;54344.06;5050395;28;20122;-68
2023/05/22 02:12:54;;;;;;;10.07;7.60;;;;;;;-144.73;100.00;54378.97;5052878;28;20020;-71
2023/05/22 02:15:20;;;;;;;17.77;7.25;;;;;;;-144.73;100.00;54378.97;5050173;28;20043;-71
2023/05/22 02:17:48;;;;;;;13.98;7.28;;;;;;;-144.73;100.00;54366.66;5052008;28;20037;-71
2023/05/22 02:20:14;;;;;;;9.70;7.47;;;;;;;-144.73;99.99;54381.00;5051096;28;20033;-71
2023/05/22 02:22:42;;;;;;;13.63;8.20;;;;;;;-144.73;100.00;54337.91;5050527;28;20027;-72
2023/05/22 02:25:12;;;;;;;10.98;8.57;;;;;;;-144.73;100.00;54327.66;5050129;28;20059;-71
2023/05/22 02:27:38;;;;;;;13.33;8.80;;;;;;;-144.73;100.00;54387.19;5052087;28;20029;-71
2023/05/22 02:30:05;;;;;;;13.25;8.30;;;;;;;-144.73;100.00;54333.81;5051181;28;20040;-71
2023/05/22 02:32:30;;;;;;;11.65;7.85;;;;;;;-144.73;100.00;54352.28;5050198;28;20021;-71
2023/05/22 02:34:57;;;;;;;13.27;7.80;;;;;;;-144.73;100.00;54350.22;5050121;28;20055;-71
2023/05/22 02:37:22;;;;;;;22.08;7.82;;;;;;;-144.73;100.00;54383.06;5050333;28;20083;-71
2023/05/22 02:39:48;;;;;;;13.88;8.40;;;;;;;-144.73;100.00;54358.44;5051187;28;20024;-71
2023/05/22 02:42:13;;;;;;;9.88;7.10;;;;;;;-144.73;100.00;54409.75;5050098;28;20024;-71
2023/05/22 02:44:38;;;;;;;13.85;7.30;;;;;;;-144.73;100.00;54342.03;5050098;28;20582;-71
2023/05/22 02:47:04;;;;;;;13.60;7.72;;;;;;;-144.73;99.00;54362.53;5050349;28;20072;-71
2023/05/22 02:49:29;;;;;;;10.73;7.40;;;;;;;-144.73;99.39;54329.72;5050504;28;20025;-71
2023/05/22 02:51:54;;;;;;;13.10;7.88;;;;;;;-144.73;99.47;54337.91;5049735;28;20032;-71
2023/05/22 02:54:20;;;;;;;15.38;8.10;;;;;;;-144.73;98.54;54366.66;5051194;28;20028;-72
2023/05/22 02:56:45;;;;;;;15.73;7.28;;;;;;;-144.73;98.36;54307.13;5047429;28;20091;-71
2023/05/22 02:59:11;;;;;;;9.88;6.80;;;;;;;-144.73;99.45;54358.44;5049492;28;20400;-71
2023/05/22 03:01:37;;;;;;;10.85;8.00;;;;;;;-144.73;98.66;54350.22;5049357;28;20029;-69
2023/05/22 03:04:03;;;;;;;10.57;7.53;;;;;;;-144.73;98.44;54370.75;5049476;28;20043;-70
2023/05/22 03:06:29;;;;;;;21.67;7.72;;;;;;;-144.73;97.22;54395.38;5065971;28;20036;-70
2023/05/22 03:08:54;;;;;;;12.98;7.38;;;;;;;-144.73;97.98;54358.44;5069695;28;20017;-70
2023/05/22 03:11:20;;;;;;;13.02;6.95;;;;;;;-144.73;97.64;54348.19;5061084;28;20029;-70
2023/05/22 03:13:45;;;;;;;14.73;6.50;;;;;;;-144.73;96.21;54366.66;5068543;28;20029;-71
2023/05/22 03:16:11;;;;;;;10.50;7.00;;;;;;;-144.73;97.00;54370.75;5066158;28;20037;-71
2023/05/22 03:18:36;;;;;;;10.05;6.60;;;;;;;-144.73;95.88;54350.22;5067972;28;20020;-71
2023/05/22 03:21:02;;;;;;;14.43;6.93;;;;;;;-144.73;95.89;54370.75;5069649;28;20154;-70
2023/05/22 03:23:27;;;;;;;17.70;7.95;;;;;;;-144.73;95.13;54366.66;5064030;28;20090;-71
2023/05/22 03:25:53;;;;;;;14.25;7.13;;;;;;;-144.73;95.55;54346.13;5068195;28;20040;-71
2023/05/22 03:28:18;;;;;;;7.80;6.38;;;;;;;-144.73;94.56;54354.34;5064808;28;20064;-70
2023/05/22 03:30:43;;;;;;;17.60;7.30;;;;;;;-144.73;94.19;54374.84;5065662;28;20036;-71
2023/05/22 03:33:10;;;;;;;15.82;6.75;;;;;;;-144.73;94.46;54354.34;5069416;28;20032;-71
2023/05/22 03:35:35;;;;;;;9.80;7.18;;;;;;;-144.73;93.74;54342.03;5061023;28;20033;-71
2023/05/22 03:38:01;;;;;;;13.02;6.35;;;;;;;-144.73;93.75;54348.19;5067886;28;20032;-70
2023/05/22 03:40:26;;;;;;;22.05;7.28;;;;;;;-144.73;94.02;54362.53;5062769;28;20067;-70
2023/05/22 03:42:51;;;;;;;9.63;6.45;;;;;;;-144.73;94.16;54362.53;5067594;28;20067;-70
2023/05/22 03:45:17;;;;;;;10.43;7.47;;;;;;;-144.73;92.85;54362.53;5065597;28;20120;-70
2023/05/22 03:47:42;;;;;;;15.05;6.70;;;;;;;-144.73;92.04;54333.81;5069172;28;20024;-70
2023/05/22 03:50:08;;;;;;;12.65;6.88;;;;;;;-144.73;91.93;54329.72;5070240;28;20032;-71
2023/05/22 03:52:33;;;;;;;13.38;5.90;;;;;;;-144.73;91.48;54383.06;5068812;28;20502;-71
2023/05/22 03:54:59;;;;;;;12.77;6.43;;;;;;;-144.73;91.96;54362.53;5068415;28;20092;-71
2023/05/22 03:57:24;;;;;;;15.30;7.20;;;;;;;-144.73;90.97;54358.44;5068672;28;20086;-71
2023/05/22 03:59:50;;;;;;;22.55;7.05;;;;;;;-144.73;90.65;54387.19;5068152;28;20020;-70
2023/05/22 04:02:16;;;;;;;10.07;6.50;;;;;;;-144.73;90.59;54358.44;5069193;28;20475;-70
2023/05/22 04:04:45;;;;;;;12.38;6.28;;;;;;;-144.73;91.19;54362.53;5068212;28;20016;-69
2023/05/22 04:07:12;;;;;;;9.73;5.90;;;;;;;-144.73;90.70;54407.69;5068596;28;20067;-70
2023/05/22 04:09:38;;;;;;;17.17;7.10;;;;;;;-144.73;90.18;54370.75;5069215;28;20024;-70
2023/05/22 04:12:04;;;;;;;13.05;6.10;;;;;;;-144.73;90.64;54331.75;5063782;28;20027;-70
2023/05/22 04:14:29;;;;;;;11.18;6.45;;;;;;;-144.73;90.13;54370.75;5067394;28;20032;-70
2023/05/22 04:16:54;;;;;;;11.60;6.22;;;;;;;-144.73;89.22;54378.97;5062396;28;20067;-70
2023/05/22 04:19:20;;;;;;;12.20;5.90;;;;;;;-144.73;89.05;54358.44;5065781;28;20032;-70
2023/05/22 04:21:47;;;;;;;11.82;6.50;;;;;;;-144.73;89.30;54370.75;5067918;28;20043;-70
2023/05/22 04:24:12;;;;;;;11.63;7.10;;;;;;;-144.73;88.18;54354.34;5069589;28;20107;-70
2023/05/22 04:26:38;;;;;;;11.55;6.15;;;;;;;-144.73;89.21;54317.38;5067525;28;20124;-70
2023/05/22 04:29:09;;;;;;;12.73;6.13;;;;;;;-144.73;88.34;54354.34;5068143;28;20026;-70
2023/05/22 04:31:34;;;;;;;12.15;5.50;;;;;;;-144.73;88.03;54333.81;5068088;28;20033;-70
2023/05/22 04:34:00;;;;;;;12.10;6.63;;;;;;;-144.73;86.21;54370.75;5065738;28;20047;-70
2023/05/22 04:36:25;;;;;;;14.50;6.22;;;;;;;-144.73;85.67;54346.13;5067953;28;20040;-70
2023/05/22 04:38:51;;;;;;;16.40;6.03;;;;;;;-144.73;85.97;54321.50;5068262;28;20400;-70
2023/05/22 04:41:17;;;;;;;12.20;5.82;;;;;;;-144.73;85.29;54300.97;5067480;28;20045;-70
2023/05/22 04:43:47;;;;;;;10.63;6.13;;;;;;;-144.73;85.30;54346.13;5069032;28;20039;-70
2023/05/22 04:46:15;;;;;;;9.95;6.00;;;;;;;-144.73;85.78;54321.50;5069109;28;20031;-69
2023/05/22 04:48:41;;;;;;;12.38;6.53;;;;;;;-144.73;84.10;54337.91;5069312;28;20031;-70
2023/05/22 04:51:06;;;;;;;14.82;5.88;;;;;;;-144.73;83.53;54364.59;5067793;28;20032;-70
2023/05/22 04:53:32;;;;;;;11.55;6.22;;;;;;;-144.73;83.74;54358.44;5071586;28;20035;-71
2023/05/22 04:55:58;;;;;;;9.68;5.60;;;;;;;-144.73;83.69;54374.84;5071298;28;20025;-71
2023/05/22 04:58:26;;;;;;;11.05;7.68;;;;;;;-144.73;83.16;54325.59;5071935;28;20060;-71
2023/05/22 05:00:52;;;;;;;16.40;5.72;;;;;;;-144.73;81.80;54333.81;5072444;28;20043;-71
2023/05/22 05:03:17;;;;;;;10.27;5.70;;;;;;;-144.73;81.70;54352.28;5072765;28;20032;-71
2023/05/22 05:05:43;;;;;;;9.30;5.30;;;;;;;-144.73;80.80;54354.34;5072144;28;20036;-71
2023/05/22 05:08:09;;;;;;;6.95;5.00;;;;;;;-144.73;79.93;54325.59;5072961;28;20082;-71
2023/05/22 05:10:34;;;;;;;12.55;5.85;;;;;;;-144.73;80.01;54321.50;5072301;28;20028;-71
2023/05/22 05:13:00;;;;;;;13.18;5.90;;;;;;;-144.73;78.69;54360.50;5073085;28;20032;-71
2023/05/22 05:15:26;;;;;;;19.35;5.57;;;;;;;-144.73;79.87;54346.13;5073452;28;20082;-71
2023/05/22 05:17:51;;;;;;;13.35;4.80;;;;;;;-144.73;79.87;54358.44;5074811;28;20032;-71
2023/05/22 05:20:17;;;;;;;13.30;5.60;;;;;;;-144.73;79.63;54346.13;5072445;28;20032;-71
2023/05/22 05:22:42;;;;;;;22.75;5.95;;;;;;;-144.73;79.58;54329.72;5073408;28;20024;-71
2023/05/22 05:25:08;;;;;;;9.15;5.25;;;;;;;-144.73;78.79;54317.38;5071945;28;20040;-70
2023/05/22 05:27:33;;;;;;;10.75;5.70;;;;;;;-144.73;77.84;54300.97;5073157;28;20016;-71
2023/05/22 05:29:59;;;;;;;14.23;5.55;;;;;;;-144.73;77.68;54321.50;5073353;28;20066;-71
2023/05/22 05:32:24;;;;;;;15.35;6.20;;;;;;;-144.73;78.63;54313.28;5072914;28;20083;-71
2023/05/22 05:34:50;;;;;;;11.52;5.45;;;;;;;-144.73;78.43;54354.34;5069702;28;20028;-71
2023/05/22 05:37:16;;;;;;;10.70;5.00;;;;;;;-144.73;77.81;54317.38;5067849;28;20031;-71
2023/05/22 05:39:41;;;;;;;11.68;5.10;;;;;;;-144.73;77.55;54292.75;5071705;28;20031;-71
2023/05/22 05:42:07;;;;;;;10.95;5.10;;;;;;;-144.73;77.14;54354.34;5071730;28;20024;-71
2023/05/22 05:44:32;;;;;;;13.88;4.90;;;;;;;-144.73;77.46;54337.91;5071781;28;20028;-71
2023/05/22 05:46:57;;;;;;;9.15;4.72;;;;;;;-144.73;77.00;54321.50;5072553;28;20041;-71
2023/05/22 05:49:23;;;;;;;11.38;4.80;;;;;;;-144.73;75.85;54337.91;5072124;28;20090;-71
2023/05/22 05:51:48;;;;;;;10.82;5.80;;;;;;;-144.73;77.17;54333.81;5071251;28;20036;-71
2023/05/22 05:54:13;;;;;;;18.23;5.90;;;;;;;-144.73;75.27;54305.06;5071234;28;20024;-71
2023/05/22 05:56:39;;;;;;;12.77;5.85;;;;;;;-144.73;75.62;54329.72;5070686;28;20060;-71
2023/05/22 05:59:04;;;;;;;11.68;5.38;;;;;;;-144.73;74.29;54362.53;5071574;28;20147;-71
2023/05/22 06:01:34;;;;;;;14.38;4.95;;;;;;;-144.73;74.88;54337.91;5070961;28;20112;-71
2023/05/22 06:04:01;;;;;;;16.20;5.47;;;;;;;-144.73;74.87;54329.72;5070753;28;20102;-71
2023/05/22 06:06:29;;;;;;;9.98;4.63;;;;;;;-144.73;74.18;54300.97;5070982;28;20043;-71
2023/05/22 06:08:55;;;;;;;11.52;4.45;;;;;;;-144.73;72.28;54290.72;5071050;28;20028;-71
2023/05/22 06:11:22;;;;;;;10.38;5.57;;;;;;;-144.73;72.74;54358.44;5070285;28;20032;-71
2023/05/22 06:13:47;;;;;;;19.58;5.15;;;;;;;-144.73;71.58;54370.75;5072116;28;20058;-71
2023/05/22 06:16:12;;;;;;;9.48;5.15;;;;;;;-144.73;72.06;54300.97;5070354;28;20056;-72
2023/05/22 06:18:38;;;;;;;13.55;4.68;;;;;;;-144.73;71.75;54313.28;5071024;28;20044;-72
2023/05/22 06:21:03;;;;;;;8.75;4.00;;;;;;;-144.73;70.80;54366.66;5070637;28;20029;-71
2023/05/22 06:23:28;;;;;;;13.65;4.57;;;;;;;-144.73;68.23;54317.38;5071595;28;20031;-71
2023/05/22 06:25:54;;;;;;;14.65;5.13;;;;;;;-144.73;69.09;54321.50;5071257;28;20040;-71
2023/05/22 06:28:20;;;;;;;9.43;4.70;;;;;;;-144.73;68.23;54317.38;5070712;28;20028;-71
2023/05/22 06:30:45;;;;;;;9.63;5.63;;;;;;;-144.73;68.06;54329.72;5069836;28;20119;-71
2023/05/22 06:33:10;;;;;;;9.35;4.18;;;;;;;-144.73;68.00;54305.06;5070485;28;20020;-71
2023/05/22 06:35:36;;;;;;;15.13;4.63;;;;;;;-144.73;66.32;54292.75;5070175;28;20086;-71
2023/05/22 06:38:01;;;;;;;14.75;4.20;;;;;;;-144.73;66.07;54292.75;5071686;28;20627;-71
2023/05/22 06:40:26;;;;;;;9.95;4.40;;;;;;;-144.73;65.47;54342.03;5069624;28;20039;-71
2023/05/22 06:42:52;;;;;;;9.77;4.82;;;;;;;-144.73;65.92;54311.22;5071760;28;20047;-71
2023/05/22 06:45:18;;;;;;;15.95;4.72;;;;;;;-144.73;66.79;54350.22;5070315;28;20032;-71
2023/05/22 06:47:44;;;;;;;12.48;4.47;;;;;;;-144.73;65.72;54296.88;5070321;28;20012;-72
2023/05/22 06:50:10;;;;;;;18.90;4.80;;;;;;;-144.73;66.50;54307.13;5066524;28;20040;-71
2023/05/22 06:52:37;;;;;;;8.93;4.22;;;;;;;-144.73;66.32;54325.59;5070142;28;20078;-71
2023/05/22 06:55:04;;;;;;;21.40;4.68;;;;;;;-144.73;64.75;54309.19;5068734;28;20040;-71
2023/05/22 06:57:30;;;;;;;11.57;4.18;;;;;;;-144.73;64.56;54313.28;5066940;28;20028;-71
2023/05/22 06:59:56;;;;;;;9.85;4.80;;;;;;;-144.73;65.15;54284.56;5065328;28;20031;-71
2023/05/22 07:02:21;;;;;;;14.50;4.50;;;;;;;-144.73;64.15;54317.38;5064365;28;20020;-71
2023/05/22 07:04:47;;;;;;;14.30;4.30;;;;;;;-144.73;63.90;54305.06;5070223;28;20036;-72
2023/05/22 07:07:12;;;;;;;16.20;4.82;;;;;;;-144.73;64.58;54358.44;5069145;28;20034;-71
2023/05/22 07:09:37;;;;;;;19.67;4.32;;;;;;;-144.73;63.76;54292.75;5068444;28;20021;-71
2023/05/22 07:12:03;;;;;;;16.58;4.53;;;;;;;-144.73;64.29;54317.38;5069398;28;20043;-71
2023/05/22 07:14:28;;;;;;;16.95;6.03;;;;;;;-144.73;63.39;54325.59;5068589;28;20021;-71
2023/05/22 07:16:54;;;;;;;7.82;5.07;;;;;;;-144.73;63.34;54309.19;5062816;28;20068;-70
2023/05/22 07:19:20;;;;;;;12.50;4.47;;;;;;;-144.73;62.89;54342.03;5070828;28;20059;-71
2023/05/22 07:21:45;;;;;;;6.65;4.45;;;;;;;-144.73;62.30;54313.28;5069168;28;20028;-71
2023/05/22 07:24:10;;;;;;;13.55;4.22;;;;;;;-144.73;62.15;54300.97;5070398;28;20036;-71
2023/05/22 07:26:37;;;;;;;17.95;4.75;;;;;;;-144.73;61.72;54284.56;5069089;28;20115;-71
2023/05/22 07:29:03;;;;;;;8.23;4.20;;;;;;;-144.73;63.19;54286.59;5045572;28;20366;-71
2023/05/22 07:31:29;;;;;;;10.95;4.38;;;;;;;-144.73;60.54;54296.88;5056105;28;20039;-71
2023/05/22 07:33:55;;;;;;;14.15;3.88;;;;;;;-144.73;59.98;54311.22;5061838;28;20051;-71
2023/05/22 07:36:21;;;;;;;8.48;3.47;;;;;;;-144.73;58.98;54280.44;5054817;28;20033;-71
2023/05/22 07:38:46;;;;;;;23.75;4.65;;;;;;;-144.73;57.70;54255.81;5062936;28;20019;-70
2023/05/22 07:41:12;;;;;;;9.45;3.72;;;;;;;-144.73;55.98;54239.41;5056089;28;20025;-71
2023/05/22 07:43:38;;;;;;;9.30;3.53;;;;;;;-144.73;56.96;54284.56;5059628;28;20023;-71
2023/05/22 07:46:04;;;;;;;17.70;3.83;;;;;;;-144.73;54.59;54276.34;5063223;28;20036;-70
2023/05/22 07:48:30;;;;;;;10.60;3.90;;;;;;;-144.73;56.28;54247.59;5062221;28;20180;-70
2023/05/22 07:50:56;;;;;;;15.35;3.83;;;;;;;-144.73;54.05;54276.34;5061474;28;20120;-71
2023/05/22 07:53:22;;;;;;;4.65;3.40;;;;;;;-144.73;52.42;54247.59;5058131;28;20028;-71
2023/05/22 07:55:47;;;;;;;12.15;3.45;;;;;;;-144.73;53.10;54288.66;5061464;28;20025;-70
2023/05/22 07:58:12;;;;;;;15.60;3.65;;;;;;;-144.73;53.21;54245.56;5063971;28;20055;-70
2023/05/22 08:00:37;;;;;;;10.95;4.30;;;;;;;-144.73;51.96;54255.81;5062476;28;20037;-70
2023/05/22 08:03:04;;;;;;;9.30;3.47;;;;;;;-144.73;51.51;54251.72;5061977;28;20048;-72
2023/05/22 08:05:30;;;;;;;12.98;4.53;;;;;;;-144.73;51.76;54249.66;5060761;28;20111;-71
2023/05/22 08:07:55;;;;;;;9.43;3.42;;;;;;;-144.73;51.90;54288.66;5062175;28;20021;-70
2023/05/22 08:10:21;;;;;;;13.50;3.45;;;;;;;-144.73;51.33;54216.81;5060723;28;20123;-70
2023/05/22 08:12:46;;;;;;;17.73;4.32;;;;;;;-144.73;50.87;54247.59;5063252;28;20024;-70
2023/05/22 08:15:12;;;;;;;10.05;3.72;;;;;;;-144.73;50.50;54243.50;5063533;28;20036;-71
2023/05/22 08:17:37;;;;;;;20.05;4.03;;;;;;;-144.73;51.11;54276.34;5064934;28;20054;-71
2023/05/22 08:20:04;;;;;;;7.82;3.30;;;;;;;-144.73;50.68;54243.50;5061773;28;20032;-71
2023/05/22 08:22:30;;;;;;;14.73;3.50;;;;;;;-144.73;48.77;54251.72;5061815;28;20032;-70
2023/05/22 08:24:55;;;;;;;12.27;3.72;;;;;;;-144.73;48.67;54276.34;5062622;28;20024;-71
2023/05/22 08:27:21;;;;;;;8.10;4.05;;;;;;;-144.73;47.83;54276.34;5062275;28;20028;-71
2023/05/22 08:29:46;;;;;;;15.68;3.80;;;;;;;-144.73;48.38;54276.34;5063827;28;20368;-71
2023/05/22 08:32:12;;;;;;;10.30;3.67;;;;;;;-144.73;48.91;54247.59;5060487;28;20013;-72
2023/05/22 08:34:39;;;;;;;6.82;3.22;;;;;;;-144.73;48.92;54253.75;5062294;28;20020;-72
2023/05/22 08:37:05;;;;;;;10.98;4.63;;;;;;;-144.73;48.31;54251.72;5062150;28;20123;-71
2023/05/22 08:39:30;;;;;;;12.80;3.70;;;;;;;-144.73;47.83;54188.09;5061089;28;20016;-71
2023/05/22 08:41:56;;;;;;;13.32;3.63;;;;;;;-144.73;47.75;54229.13;5057357;28;20051;-71
2023/05/22 08:44:21;;;;;;;14.70;4.13;;;;;;;-144.73;47.16;54243.50;5061652;28;20036;-71
2023/05/22 08:46:48;;;;;;;23.90;3.55;;;;;;;-144.73;46.45;54225.03;5063846;28;20033;-71
2023/05/22 08:49:16;;;;;;;9.98;2.95;;;;;;;-144.73;45.32;54231.19;5061050;28;20032;-71
2023/05/22 08:51:46;;;;;;;5.57;3.42;;;;;;;-144.73;44.21;54222.97;5062626;28;20387;-71
2023/05/22 08:54:14;;;;;;;8.93;3.85;;;;;;;-144.73;44.51;54210.66;5059868;28;20028;-71
2023/05/22 08:56:40;;;;;;;21.58;3.38;;;;;;;-144.73;43.96;54284.56;5063841;28;20032;-71
2023/05/22 08:59:06;;;;;;;4.55;3.30;;;;;;;-144.73;44.90;54255.81;5062596;28;20047;-72
2023/05/22 09:01:32;;;;;;;13.75;4.30;;;;;;;-144.73;44.71;54243.50;5063209;28;20035;-71
2023/05/22 09:04:00;;;;;;;15.80;3.55;;;;;;;-144.73;44.47;54296.88;5062070;28;20092;-72
2023/05/22 09:06:27;;;;;;;9.43;3.58;;;;;;;-144.73;44.28;54229.13;5062151;28;20138;-72
2023/05/22 09:08:54;;;;;;;15.23;3.25;;;;;;;-144.73;43.77;54202.44;5062552;28;20063;-72
2023/05/22 09:11:19;;;;;;;7.22;3.40;;;;;;;-144.73;43.09;54249.66;5062250;28;20113;-72
2023/05/22 09:13:45;;;;;;;7.38;3.50;;;;;;;-144.73;43.59;54202.44;5063342;28;20020;-72
2023/05/22 09:16:12;;;;;;;15.02;3.70;;;;;;;-144.73;42.65;54210.66;5061552;28;20111;-72
2023/05/22 09:18:38;;;;;;;10.65;3.90;;;;;;;-144.73;43.09;54194.25;5061936;28;20046;-72
2023/05/22 09:21:05;;;;;;;9.75;3.42;;;;;;;-144.73;42.39;54186.03;5061792;28;20146;-72
2023/05/22 09:23:32;;;;;;;9.30;2.90;;;;;;;-144.73;41.49;54206.56;5062466;28;20107;-72
2023/05/22 09:25:58;;;;;;;9.05;3.50;;;;;;;-144.73;40.70;54165.50;5065213;28;20111;-72
2023/05/22 09:28:24;;;;;;;6.03;4.03;;;;;;;-144.73;41.31;54190.13;5062042;28;20035;-72
2023/05/22 09:30:51;;;;;;;6.40;3.08;;;;;;;-144.73;39.80;54227.09;5061839;28;20036;-72
2023/05/22 09:33:21;;;;;;;14.48;3.10;;;;;;;-144.73;39.15;54194.25;5063303;28;20039;-72
2023/05/22 09:35:48;;;;;;;6.20;3.38;;;;;;;-144.73;40.33;54161.41;5061311;28;20036;-72
2023/05/22 09:38:14;;;;;;;17.23;4.22;;;;;;;-144.73;39.14;54231.19;5064365;28;20024;-73
2023/05/22 09:40:40;;;;;;;15.43;3.42;;;;;;;-144.73;38.93;54165.50;5064786;28;20040;-72
2023/05/22 09:43:16;;;;;;;20.88;3.60;;;;;;;-144.73;38.05;54220.94;5065551;28;20074;-72
2023/05/22 09:45:42;;;;;;;9.80;3.30;;;;;;;-144.73;38.96;54241.44;5064632;28;20036;-72
2023/05/22 09:48:08;;;;;;;16.10;3.70;;;;;;;-144.73;38.21;54194.25;5065512;28;20036;-71
2023/05/22 09:50:38;;;;;;;14.00;3.22;;;;;;;-144.73;38.57;54194.25;5063622;28;20491;-71
2023/05/22 09:53:04;;;;;;;10.15;3.60;;;;;;;-144.73;38.69;54190.13;5065862;28;20050;-71
2023/05/22 09:55:30;;;;;;;15.68;3.88;;;;;;;-144.73;37.45;54173.72;5067429;28;20036;-71
2023/05/22 09:57:57;;;;;;;13.68;3.80;;;;;;;-144.73;37.55;54177.81;5066013;28;20059;-71
2023/05/22 10:00:24;;;;;;;10.48;3.70;;;;;;;-144.73;38.25;54206.56;5065105;28;20032;-72
2023/05/22 10:02:57;;;;;;;13.93;3.63;;;;;;;-144.73;37.56;54210.66;5065991;28;20097;-71
2023/05/22 10:05:28;;;;;;;6.10;3.10;;;;;;;-144.73;37.98;54181.94;5065348;28;20040;-71
2023/05/22 10:08:00;;;;;;;18.33;3.90;;;;;;;-144.73;37.67;54165.50;5063729;28;20089;-71
2023/05/22 10:10:26;;;;;;;11.52;3.10;;;;;;;-144.73;37.81;54145.00;5066161;28;20060;-71
2023/05/22 10:13:00;;;;;;;7.57;3.67;;;;;;;-144.73;38.23;54227.09;5065811;28;20055;-71
2023/05/22 10:15:26;;;;;;;11.75;3.17;;;;;;;-144.73;37.33;54186.03;5064586;28;20039;-71
2023/05/22 10:17:51;;;;;;;7.25;4.75;;;;;;;-144.73;37.31;54177.81;5065885;28;20020;-71
2023/05/22 10:20:17;;;;;;;12.10;4.15;;;;;;;-144.73;36.65;54149.09;5064659;28;20055;-71
2023/05/22 10:22:45;;;;;;;14.25;3.58;;;;;;;-144.73;36.79;54165.50;5065451;28;20039;-71
2023/05/22 10:25:11;;;;;;;10.77;3.28;;;;;;;-144.73;36.87;54161.41;5063726;28;20136;-71
2023/05/22 10:27:39;;;;;;;12.23;3.78;;;;;;;-144.73;36.67;54175.78;5065562;28;20078;-73
2023/05/22 10:30:26;;;;;;;13.68;3.40;;;;;;;-144.73;36.98;54147.03;5066325;28;20049;-71
2023/05/22 10:32:59;;;;;;;8.20;3.10;;;;;;;-144.73;36.94;54161.41;5062461;28;20551;-71
2023/05/22 10:35:35;;;;;;;10.00;3.63;;;;;;;-144.73;36.46;54112.16;5064200;28;20028;-72
2023/05/22 10:38:26;;;;;;;13.30;3.33;;;;;;;-144.73;35.54;54149.09;5066842;28;20032;-72
2023/05/22 10:40:52;;;;;;;12.98;3.45;;;;;;;-144.73;35.07;54171.66;5064559;28;20028;-72
2023/05/22 10:43:20;;;;;;;9.23;3.35;;;;;;;-144.73;35.47;54183.97;5066518;28;20020;-72
2023/05/22 10:45:46;;;;;;;13.75;3.35;;;;;;;-144.73;35.00;54145.00;5064612;28;20094;-72
2023/05/22 10:48:12;;;;;;;11.93;3.20;;;;;;;-144.73;32.95;54103.94;5065461;28;20024;-72
2023/05/22 10:50:38;;;;;;;7.60;3.28;;;;;;;-144.73;33.82;54116.25;5063659;28;20033;-72
2023/05/22 10:53:27;;;;;;;17.20;3.90;;;;;;;-144.73;32.48;54120.34;5065779;28;20082;-74
2023/05/22 10:55:57;;;;;;;24.83;3.60;;;;;;;-144.73;32.99;54157.31;5063040;28;20037;-72
2023/05/22 10:58:31;;;;;;;7.28;3.30;;;;;;;-144.73;33.14;54134.72;5062676;28;20051;-71
2023/05/22 11:01:16;;;;;;;7.35;3.22;;;;;;;-144.73;32.56;54087.53;5064419;28;20040;-71
2023/05/22 11:04:09;;;;;;;10.05;3.75;;;;;;;-144.73;32.30;54165.50;5063556;28;20143;-71
2023/05/22 11:06:40;;;;;;;9.65;3.08;;;;;;;-144.73;31.68;54128.56;5064104;28;20036;-72
2023/05/22 11:09:28;;;;;;;10.82;3.00;;;;;;;-144.73;32.63;54145.00;5062742;28;20036;-74
2023/05/22 11:12:15;;;;;;;13.27;3.70;;;;;;;-144.73;33.05;54145.00;5062195;28;20028;-72